createdAt,value
2023-11-15T00:00:54.034Z,14
2023-11-15T00:01:56.016Z,13
2023-11-15T00:02:58.023Z,13
2023-11-15T00:04:00.016Z,14
2023-11-15T00:05:01.144Z,14
2023-11-15T00:06:01.850Z,14
2023-11-15T00:07:04.896Z,14
2023-11-15T00:08:09.244Z,14
2023-11-15T00:09:11.959Z,14
2023-11-15T00:10:15.469Z,14
2023-11-15T00:11:17.412Z,14
2023-11-15T00:12:18.815Z,14
2023-11-15T00:13:23.654Z,14
2023-11-15T00:14:27.069Z,14
2023-11-15T00:15:32.171Z,15
2023-11-15T00:16:33.815Z,14
2023-11-15T00:17:38.618Z,14
2023-11-15T00:18:40.054Z,14
2023-11-15T00:19:44.514Z,14
2023-11-15T00:20:45.785Z,14
2023-11-15T00:21:49.172Z,14
2023-11-15T00:22:50.793Z,14
2023-11-15T00:23:53.268Z,13
2023-11-15T00:24:56.077Z,13
2023-11-15T00:25:57.002Z,13
2023-11-15T00:26:57.774Z,14
2023-11-15T00:27:58.781Z,14
2023-11-15T00:28:59.770Z,14
2023-11-15T00:30:01.007Z,14
2023-11-15T00:31:04.000Z,14
2023-11-15T00:32:04.758Z,13
2023-11-15T00:33:08.823Z,14
2023-11-15T00:34:12.052Z,14
2023-11-15T00:35:15.666Z,14
2023-11-15T00:36:16.792Z,14
2023-11-15T00:37:21.189Z,15
2023-11-15T00:38:23.035Z,15
2023-11-15T00:39:26.283Z,15
2023-11-15T00:40:30.486Z,14
2023-11-15T00:41:31.798Z,15
2023-11-15T00:42:34.115Z,15
2023-11-15T00:43:35.046Z,16
2023-11-15T00:44:35.777Z,16
2023-11-15T00:45:44.531Z,16
2023-11-15T00:46:46.243Z,15
2023-11-15T00:47:48.084Z,15
2023-11-15T00:48:48.957Z,15
2023-11-15T00:49:52.797Z,15
2023-11-15T00:50:53.794Z,16
2023-11-15T00:51:55.884Z,15
2023-11-15T00:52:57.161Z,15
2023-11-15T00:53:58.800Z,15
2023-11-15T00:55:00.912Z,15
2023-11-15T00:56:03.125Z,15
2023-11-15T00:57:10.196Z,15
2023-11-15T00:58:13.774Z,15
2023-11-15T00:59:15.785Z,15
2023-11-15T01:00:21.012Z,15
2023-11-15T01:01:22.586Z,15
2023-11-15T01:02:26.994Z,15
2023-11-15T01:03:28.255Z,15
2023-11-15T01:04:34.518Z,15
2023-11-15T01:05:35.976Z,15
2023-11-15T01:06:36.759Z,15
2023-11-15T01:07:37.761Z,15
2023-11-15T01:08:38.933Z,15
2023-11-15T01:09:39.755Z,15
2023-11-15T01:10:40.779Z,15
2023-11-15T01:11:41.772Z,15
2023-11-15T01:12:46.527Z,15
2023-11-15T01:13:49.386Z,15
2023-11-15T01:14:51.106Z,15
2023-11-15T01:15:52.280Z,14
2023-11-15T01:16:53.833Z,14
2023-11-15T01:17:55.081Z,15
2023-11-15T01:18:56.031Z,15
2023-11-15T01:19:57.948Z,15
2023-11-15T01:20:58.839Z,15
2023-11-15T01:22:00.121Z,15
2023-11-15T01:23:01.061Z,15
2023-11-15T01:24:01.828Z,16
2023-11-15T01:25:06.170Z,15
2023-11-15T01:26:10.277Z,15
2023-11-15T01:27:10.971Z,15
2023-11-15T01:28:14.320Z,15
2023-11-15T01:29:16.837Z,15
2023-11-15T01:30:18.799Z,16
2023-11-15T01:31:23.472Z,15
2023-11-15T01:32:24.846Z,15
2023-11-15T01:33:32.244Z,15
2023-11-15T01:34:34.813Z,16
2023-11-15T01:35:37.028Z,15
2023-11-15T01:36:37.835Z,15
2023-11-15T01:37:39.954Z,15
2023-11-15T01:38:42.961Z,16
2023-11-15T01:39:47.822Z,16
2023-11-15T01:40:50.996Z,16
2023-11-15T01:41:52.026Z,16
2023-11-15T01:42:52.763Z,16
2023-11-15T01:43:55.062Z,16
2023-11-15T01:44:56.925Z,16
2023-11-15T01:46:02.210Z,16
2023-11-15T01:47:04.005Z,16
2023-11-15T01:48:07.084Z,16
2023-11-15T01:49:07.780Z,16
2023-11-15T01:50:09.069Z,16
2023-11-15T01:51:11.112Z,16
2023-11-15T01:52:12.941Z,16
2023-11-15T01:53:16.529Z,16
2023-11-15T01:54:18.047Z,17
2023-11-15T01:55:22.845Z,17
2023-11-15T01:56:28.225Z,17
2023-11-15T01:57:38.679Z,17
2023-11-15T01:58:42.033Z,16
2023-11-15T01:59:44.058Z,17
2023-11-15T02:00:48.405Z,17
2023-11-15T02:01:52.998Z,17
2023-11-15T02:02:55.098Z,16
2023-11-15T02:03:57.133Z,16
2023-11-15T02:04:59.005Z,16
2023-11-15T02:05:59.819Z,17
2023-11-15T02:07:10.847Z,17
2023-11-15T02:08:16.228Z,16
2023-11-15T02:09:18.031Z,16
2023-11-15T02:10:19.199Z,16
2023-11-15T02:11:21.105Z,16
2023-11-15T02:12:27.436Z,16
2023-11-15T02:13:30.904Z,16
2023-11-15T02:14:33.071Z,16
2023-11-15T02:15:34.864Z,16
2023-11-15T02:16:37.137Z,16
2023-11-15T02:17:40.394Z,16
2023-11-15T02:18:43.081Z,16
2023-11-15T02:19:44.936Z,16
2023-11-15T02:20:46.405Z,18
2023-11-15T02:21:50.316Z,16
2023-11-15T02:22:56.661Z,16
2023-11-15T02:24:00.622Z,16
2023-11-15T02:25:02.839Z,16
2023-11-15T02:26:04.844Z,17
2023-11-15T02:27:13.812Z,17
2023-11-15T02:28:18.347Z,17
2023-11-15T02:29:27.941Z,17
2023-11-15T02:30:30.086Z,17
2023-11-15T02:31:33.904Z,17
2023-11-15T02:32:37.944Z,17
2023-11-15T02:36:53.922Z,18
2023-11-15T02:37:55.842Z,18
2023-11-15T02:38:59.054Z,19
2023-11-15T02:40:05.108Z,18
2023-11-15T02:41:09.166Z,19
2023-11-15T02:42:13.215Z,19
2023-11-15T02:43:16.068Z,19
2023-11-15T02:44:21.253Z,19
2023-11-15T02:45:25.279Z,19
2023-11-15T02:46:30.273Z,19
2023-11-15T02:47:32.100Z,19
2023-11-15T02:48:32.944Z,19
2023-11-15T02:49:38.002Z,20
2023-11-15T02:50:42.472Z,20
2023-11-15T02:51:48.965Z,20
2023-11-15T02:52:52.998Z,20
2023-11-15T02:53:55.078Z,20
2023-11-15T02:55:02.849Z,20
2023-11-15T02:56:03.820Z,22
2023-11-15T02:57:09.276Z,22
2023-11-15T02:58:12.100Z,22
2023-11-15T02:59:14.970Z,22
2023-11-15T03:00:19.710Z,22
2023-11-15T03:01:26.806Z,22
2023-11-15T03:02:32.334Z,22
2023-11-15T03:03:44.573Z,22
2023-11-15T03:04:50.048Z,22
2023-11-15T03:05:53.282Z,22
2023-11-15T03:06:57.751Z,23
2023-11-15T03:07:59.749Z,23
2023-11-15T03:09:05.066Z,23
2023-11-15T03:10:13.054Z,23
2023-11-15T03:11:16.425Z,23
2023-11-15T03:12:23.115Z,24
2023-11-15T03:13:31.031Z,23
2023-11-15T03:14:32.120Z,24
2023-11-15T03:15:39.247Z,25
2023-11-15T03:16:40.932Z,25
2023-11-15T03:17:42.427Z,25
2023-11-15T03:18:46.917Z,25
2023-11-15T03:19:47.824Z,25
2023-11-15T03:20:53.497Z,25
2023-11-15T03:21:56.088Z,25
2023-11-15T03:23:01.276Z,24
2023-11-15T03:24:07.047Z,23
2023-11-15T03:25:09.040Z,23
2023-11-15T03:26:10.873Z,23
2023-11-15T03:27:13.069Z,24
2023-11-15T03:28:18.701Z,25
2023-11-15T03:29:19.854Z,24
2023-11-15T03:30:24.889Z,24
2023-11-15T03:31:26.922Z,25
2023-11-15T03:32:33.593Z,25
2023-11-15T03:33:42.300Z,26
2023-11-15T03:34:49.399Z,26
2023-11-15T03:35:51.965Z,26
2023-11-15T03:36:53.083Z,25
2023-11-15T03:37:58.508Z,25
2023-11-15T03:39:03.336Z,25
2023-11-15T03:40:09.189Z,25
2023-11-15T03:41:12.858Z,25
2023-11-15T03:42:14.057Z,25
2023-11-15T03:43:19.503Z,25
2023-11-15T03:44:23.966Z,25
2023-11-15T03:45:27.478Z,26
2023-11-15T03:46:30.859Z,27
2023-11-15T03:47:36.176Z,26
2023-11-15T03:48:40.991Z,26
2023-11-15T03:49:43.431Z,25
2023-11-15T03:50:44.883Z,25
2023-11-15T03:51:47.136Z,25
2023-11-15T03:52:49.255Z,26
2023-11-15T03:53:56.659Z,25
2023-11-15T03:55:02.682Z,25
2023-11-15T03:56:08.050Z,25
2023-11-15T03:57:13.069Z,25
2023-11-15T03:58:17.866Z,26
2023-11-15T03:59:24.346Z,25
2023-11-15T04:00:30.277Z,25
2023-11-15T04:01:49.030Z,25
2023-11-15T04:02:45.222Z,25
2023-11-15T04:03:47.329Z,25
2023-11-15T04:04:55.129Z,25
2023-11-15T04:06:01.122Z,5
2023-11-15T04:07:03.284Z,5
2023-11-15T04:08:05.228Z,4
2023-11-15T04:09:05.982Z,4
2023-11-15T04:10:08.201Z,4
2023-11-15T04:11:12.359Z,4
2023-11-15T04:12:13.967Z,4
2023-11-15T04:13:15.088Z,3
2023-11-15T04:14:16.846Z,3
2023-11-15T04:15:22.575Z,3
2023-11-15T04:16:25.033Z,3
2023-11-15T04:17:26.147Z,3
2023-11-15T04:18:27.965Z,4
2023-11-15T04:19:29.217Z,5
2023-11-15T04:20:31.073Z,4
2023-11-15T04:21:34.047Z,5
2023-11-15T04:22:34.863Z,5
2023-11-15T04:23:36.143Z,4
2023-11-15T04:24:36.854Z,4
2023-11-15T04:25:40.012Z,5
2023-11-15T04:26:40.884Z,5
2023-11-15T04:27:43.984Z,5
2023-11-15T04:28:45.109Z,5
2023-11-15T04:29:50.768Z,5
2023-11-15T04:30:57.644Z,6
2023-11-15T04:31:58.862Z,6
2023-11-15T04:33:04.134Z,7
2023-11-15T04:34:12.109Z,6
2023-11-15T04:35:13.157Z,6
2023-11-15T04:36:15.239Z,5
2023-11-15T04:37:16.887Z,6
2023-11-15T04:38:30.309Z,5
2023-11-15T04:39:31.854Z,5
2023-11-15T04:40:32.903Z,5
2023-11-15T04:41:35.010Z,5
2023-11-15T04:42:37.070Z,5
2023-11-15T04:43:41.289Z,5
2023-11-15T04:44:46.079Z,5
2023-11-15T04:45:49.215Z,5
2023-11-15T04:46:51.114Z,6
2023-11-15T04:47:53.202Z,6
2023-11-15T04:48:55.001Z,5
2023-11-15T04:49:57.115Z,5
2023-11-15T04:50:59.034Z,5
2023-11-15T04:52:01.018Z,4
2023-11-15T04:53:02.981Z,4
2023-11-15T04:54:08.507Z,4
2023-11-15T04:55:10.733Z,4
2023-11-15T04:56:14.977Z,4
2023-11-15T04:57:15.897Z,4
2023-11-15T04:58:17.022Z,4
2023-11-15T04:59:19.014Z,4
2023-11-15T05:00:21.023Z,4
2023-11-15T05:01:22.251Z,4
2023-11-15T05:02:26.506Z,4
2023-11-15T05:03:32.050Z,4
2023-11-15T05:04:33.089Z,4
2023-11-15T05:05:37.805Z,4
2023-11-15T05:06:39.976Z,4
2023-11-15T05:07:41.874Z,4
2023-11-15T05:08:43.696Z,5
2023-11-15T05:09:44.878Z,5
2023-11-15T05:10:46.139Z,5
2023-11-15T05:11:46.934Z,5
2023-11-15T05:12:49.080Z,4
2023-11-15T05:13:50.877Z,5
2023-11-15T05:14:52.053Z,5
2023-11-15T05:15:53.036Z,5
2023-11-15T05:17:00.754Z,5
2023-11-15T05:18:02.382Z,5
2023-11-15T05:19:03.893Z,5
2023-11-15T05:20:05.047Z,5
2023-11-15T05:21:09.957Z,5
2023-11-15T05:22:14.338Z,5
2023-11-15T05:23:16.168Z,6
2023-11-15T05:24:18.037Z,6
2023-11-15T05:25:20.221Z,6
2023-11-15T05:26:22.269Z,6
2023-11-15T05:27:25.164Z,6
2023-11-15T05:28:27.289Z,6
2023-11-15T05:29:31.839Z,7
2023-11-15T05:30:38.786Z,7
2023-11-15T05:31:41.239Z,7
2023-11-15T05:32:43.989Z,8
2023-11-15T05:33:44.924Z,8
2023-11-15T05:34:46.162Z,9
2023-11-15T05:35:47.999Z,8
2023-11-15T05:36:50.014Z,8
2023-11-15T05:37:54.791Z,8
2023-11-15T05:38:58.612Z,8
2023-11-15T05:40:05.445Z,8
2023-11-15T05:41:06.908Z,9
2023-11-15T05:42:11.526Z,9
2023-11-15T05:43:12.926Z,9
2023-11-15T05:44:15.138Z,9
2023-11-15T05:45:16.907Z,9
2023-11-15T05:46:18.217Z,11
2023-11-15T05:47:19.164Z,11
2023-11-15T05:48:22.703Z,12
2023-11-15T05:49:23.926Z,12
2023-11-15T05:50:24.966Z,12
2023-11-15T05:51:27.060Z,11
2023-11-15T05:52:29.493Z,12
2023-11-15T05:53:32.304Z,12
2023-11-15T05:54:33.992Z,12
2023-11-15T05:55:34.905Z,12
2023-11-15T05:56:36.949Z,12
2023-11-15T05:57:39.059Z,13
2023-11-15T05:58:43.968Z,14
2023-11-15T05:59:46.462Z,14
2023-11-15T06:00:50.686Z,15
2023-11-15T06:01:53.090Z,15
2023-11-15T06:02:55.264Z,14
2023-11-15T06:03:59.178Z,14
2023-11-15T06:05:01.059Z,14
2023-11-15T06:06:02.413Z,12
2023-11-15T06:07:07.007Z,13
2023-11-15T06:08:10.062Z,13
2023-11-15T06:09:10.949Z,13
2023-11-15T06:10:12.244Z,13
2023-11-15T06:11:14.398Z,12
2023-11-15T06:12:17.466Z,12
2023-11-15T06:13:24.755Z,12
2023-11-15T06:14:28.837Z,12
2023-11-15T06:15:31.941Z,12
2023-11-15T06:16:36.076Z,12
2023-11-15T06:17:40.300Z,12
2023-11-15T06:18:42.612Z,12
2023-11-15T06:19:47.535Z,12
2023-11-15T06:20:49.671Z,12
2023-11-15T06:21:52.074Z,12
2023-11-15T06:22:53.044Z,11
2023-11-15T06:23:54.370Z,11
2023-11-15T06:24:56.118Z,11
2023-11-15T06:26:01.080Z,12
2023-11-15T06:27:05.779Z,12
2023-11-15T06:28:07.066Z,13
2023-11-15T06:29:10.246Z,13
2023-11-15T06:30:13.283Z,12
2023-11-15T06:31:15.931Z,12
2023-11-15T06:32:21.190Z,12
2023-11-15T06:33:23.172Z,12
2023-11-15T06:34:30.230Z,12
2023-11-15T06:35:34.798Z,13
2023-11-15T06:36:39.939Z,13
2023-11-15T06:37:41.138Z,13
2023-11-15T06:38:47.491Z,13
2023-11-15T06:39:56.811Z,13
2023-11-15T06:41:01.921Z,12
2023-11-15T06:42:06.901Z,13
2023-11-15T06:43:18.736Z,13
2023-11-15T06:44:22.578Z,13
2023-11-15T06:45:24.993Z,13
2023-11-15T06:46:30.433Z,13
2023-11-15T06:47:34.057Z,12
2023-11-15T06:48:36.414Z,12
2023-11-15T06:49:40.936Z,12
2023-11-15T06:50:47.012Z,12
2023-11-15T06:52:06.680Z,13
2023-11-15T06:53:10.067Z,12
2023-11-15T06:54:11.991Z,13
2023-11-15T06:55:13.162Z,13
2023-11-15T06:56:17.764Z,13
2023-11-15T06:57:19.068Z,14
2023-11-15T06:58:24.879Z,14
2023-11-15T06:59:32.287Z,15
2023-11-15T07:00:35.181Z,15
2023-11-15T07:01:38.196Z,14
2023-11-15T07:02:41.432Z,14
2023-11-15T07:03:43.070Z,14
2023-11-15T07:04:45.968Z,14
2023-11-15T07:05:49.877Z,15
2023-11-15T07:06:52.175Z,14
2023-11-15T07:07:55.934Z,14
2023-11-15T07:08:58.209Z,14
2023-11-15T07:09:59.588Z,15
2023-11-15T07:11:01.258Z,14
2023-11-15T07:12:05.853Z,16
2023-11-15T07:13:08.035Z,14
2023-11-15T07:14:11.957Z,14
2023-11-15T07:15:13.008Z,14
2023-11-15T07:16:16.532Z,14
2023-11-15T07:17:20.086Z,14
2023-11-15T07:18:21.230Z,14
2023-11-15T07:19:24.548Z,14
2023-11-15T07:20:29.406Z,14
2023-11-15T07:21:32.809Z,14
2023-11-15T07:22:36.601Z,15
2023-11-15T07:23:38.061Z,15
2023-11-15T07:24:42.647Z,15
2023-11-15T07:25:45.037Z,16
2023-11-15T07:26:47.225Z,16
2023-11-15T07:27:51.691Z,16
2023-11-15T07:28:53.238Z,16
2023-11-15T07:29:57.398Z,16
2023-11-15T07:30:58.349Z,16
2023-11-15T07:31:58.976Z,15
2023-11-15T07:33:06.194Z,14
2023-11-15T07:34:08.293Z,14
2023-11-15T07:35:11.140Z,14
2023-11-15T07:36:16.169Z,14
2023-11-15T07:37:18.180Z,15
2023-11-15T07:38:21.693Z,14
2023-11-15T07:39:23.402Z,15
2023-11-15T07:40:25.062Z,16
2023-11-15T07:41:30.646Z,14
2023-11-15T07:42:38.589Z,14
2023-11-15T07:43:40.104Z,14
2023-11-15T07:44:40.986Z,14
2023-11-15T07:45:44.966Z,13
2023-11-15T07:46:46.035Z,13
2023-11-15T07:47:47.595Z,14
2023-11-15T07:48:51.154Z,13
2023-11-15T07:49:52.445Z,12
2023-11-15T07:50:57.504Z,12
2023-11-15T07:52:02.828Z,12
2023-11-15T07:53:08.006Z,11
2023-11-15T07:54:13.875Z,12
2023-11-15T07:55:23.133Z,12
2023-11-15T07:56:24.748Z,11
2023-11-15T07:57:29.827Z,12
2023-11-15T07:58:38.184Z,12
2023-11-15T07:59:39.394Z,11
2023-11-15T08:00:41.331Z,11
2023-11-15T08:01:47.921Z,9
2023-11-15T08:02:48.784Z,9
2023-11-15T08:03:51.386Z,11
2023-11-15T08:04:53.349Z,11
2023-11-15T08:05:58.623Z,11
2023-11-15T08:07:00.279Z,9
2023-11-15T08:08:01.164Z,8
2023-11-15T08:09:02.095Z,8
2023-11-15T08:10:06.052Z,8
2023-11-15T08:11:08.127Z,8
2023-11-15T08:12:16.020Z,7
2023-11-15T08:13:20.187Z,8
2023-11-15T08:14:25.018Z,8
2023-11-15T08:15:26.333Z,8
2023-11-15T08:16:29.042Z,8
2023-11-15T08:17:33.285Z,8
2023-11-15T08:18:35.153Z,8
2023-11-15T08:19:36.987Z,8
2023-11-15T08:20:44.239Z,7
2023-11-15T08:21:45.087Z,8
2023-11-15T08:22:46.221Z,9
2023-11-15T08:23:47.509Z,9
2023-11-15T08:24:51.681Z,9
2023-11-15T08:25:53.135Z,9
2023-11-15T08:26:55.195Z,9
2023-11-15T08:27:59.661Z,8
2023-11-15T08:28:59.057Z,9
2023-11-15T08:30:02.625Z,8
2023-11-15T08:31:06.789Z,7
2023-11-15T08:32:08.073Z,6
2023-11-15T08:33:14.656Z,7
2023-11-15T08:34:18.361Z,7
2023-11-15T08:35:19.069Z,7
2023-11-15T08:36:20.236Z,7
2023-11-15T08:37:22.259Z,7
2023-11-15T08:38:24.136Z,8
2023-11-15T08:39:29.283Z,7
2023-11-15T08:40:31.203Z,7
2023-11-15T08:41:33.572Z,6
2023-11-15T08:42:35.358Z,6
2023-11-15T08:43:37.565Z,6
2023-11-15T08:44:40.920Z,6
2023-11-15T08:45:50.486Z,6
2023-11-15T08:46:54.309Z,6
2023-11-15T08:48:03.539Z,7
2023-11-15T08:49:05.272Z,6
2023-11-15T08:50:06.375Z,6
2023-11-15T08:51:07.330Z,5
2023-11-15T08:52:09.359Z,5
2023-11-15T08:53:17.721Z,5
2023-11-15T08:54:19.041Z,4
2023-11-15T08:55:22.839Z,5
2023-11-15T08:56:24.039Z,5
2023-11-15T08:57:29.284Z,5
2023-11-15T08:58:30.389Z,5
2023-11-15T08:59:31.110Z,4
2023-11-15T09:00:32.112Z,4
2023-11-15T09:01:35.351Z,5
2023-11-15T09:02:37.432Z,4
2023-11-15T09:03:42.578Z,5
2023-11-15T09:04:45.380Z,4
2023-11-15T09:05:46.466Z,4
2023-11-15T09:06:47.126Z,5
2023-11-15T09:07:51.846Z,5
2023-11-15T09:08:53.071Z,5
2023-11-15T09:09:54.108Z,5
2023-11-15T09:10:55.058Z,4
2023-11-15T09:11:59.970Z,4
2023-11-15T09:13:01.184Z,3
2023-11-15T09:14:03.089Z,2
2023-11-15T09:15:05.572Z,1
2023-11-15T09:16:10.806Z,1
2023-11-15T09:17:12.414Z,0
2023-11-15T09:18:13.138Z,0
2023-11-15T09:19:17.205Z,0
2023-11-15T09:20:19.350Z,0
2023-11-15T09:21:22.105Z,0
2023-11-15T09:22:23.104Z,0
2023-11-15T09:23:25.468Z,0
2023-11-15T09:24:25.154Z,0
2023-11-15T09:25:28.977Z,1
2023-11-15T09:26:30.063Z,0
2023-11-15T09:27:31.098Z,0
2023-11-15T09:28:32.118Z,0
2023-11-15T09:29:37.114Z,0
2023-11-15T09:30:38.088Z,0
2023-11-15T09:31:39.689Z,0
2023-11-15T09:32:41.288Z,1
2023-11-15T09:33:46.450Z,1
2023-11-15T09:34:50.253Z,2
2023-11-15T09:35:54.649Z,4
2023-11-15T09:36:53.410Z,3
2023-11-15T09:37:57.246Z,3
2023-11-15T09:38:58.148Z,3
2023-11-15T09:39:59.135Z,3
2023-11-15T09:41:02.880Z,4
2023-11-15T09:42:04.321Z,4
2023-11-15T09:43:05.319Z,8
2023-11-15T09:44:12.289Z,7
2023-11-15T09:45:13.116Z,6
2023-11-15T09:46:15.686Z,7
2023-11-15T09:47:17.185Z,7
2023-11-15T09:48:19.719Z,8
2023-11-15T09:49:21.323Z,9
2023-11-15T09:50:25.975Z,9
2023-11-15T09:51:28.121Z,11
2023-11-15T09:52:33.077Z,9
2023-11-15T09:53:34.681Z,11
2023-11-15T09:54:35.374Z,11
2023-11-15T09:55:37.754Z,11
2023-11-15T09:56:42.102Z,9
2023-11-15T09:57:43.111Z,8
2023-11-15T09:58:44.175Z,5
2023-11-15T09:59:52.753Z,5
2023-11-15T10:00:50.681Z,4
2023-11-15T10:01:53.295Z,4
2023-11-15T10:02:57.385Z,4
2023-11-15T10:03:59.294Z,4
2023-11-15T10:05:03.894Z,5
2023-11-15T10:06:05.516Z,5
2023-11-15T10:07:07.355Z,5
2023-11-15T10:08:11.865Z,5
2023-11-15T10:09:14.128Z,5
2023-11-15T10:10:16.149Z,5
2023-11-15T10:11:20.145Z,4
2023-11-15T10:12:21.133Z,3
2023-11-15T10:13:24.806Z,3
2023-11-15T10:14:26.153Z,3
2023-11-15T10:15:27.195Z,3
2023-11-15T10:16:28.324Z,3
2023-11-15T10:17:33.923Z,3
2023-11-15T10:18:39.034Z,3
2023-11-15T10:19:40.621Z,3
2023-11-15T10:20:42.784Z,3
2023-11-15T10:21:46.121Z,3
2023-11-15T10:22:58.492Z,2
2023-11-15T10:24:05.084Z,2
2023-11-15T10:25:07.678Z,2
2023-11-15T10:26:10.259Z,2
2023-11-15T10:27:23.719Z,2
2023-11-15T10:28:28.032Z,2
2023-11-15T10:29:33.188Z,2
2023-11-15T10:30:34.117Z,1
2023-11-15T10:31:35.082Z,1
2023-11-15T10:32:36.518Z,1
2023-11-15T10:33:41.083Z,1
2023-11-15T10:34:43.409Z,0
2023-11-15T10:35:50.042Z,0
2023-11-15T10:36:54.125Z,0
2023-11-15T10:37:53.440Z,0
2023-11-15T10:38:55.403Z,0
2023-11-15T10:39:56.283Z,0
2023-11-15T10:40:58.212Z,0
2023-11-15T10:41:59.187Z,0
2023-11-15T10:43:03.973Z,0
2023-11-15T10:44:05.349Z,0
2023-11-15T10:45:07.464Z,0
2023-11-15T10:46:11.926Z,0
2023-11-15T10:47:15.718Z,0
2023-11-15T10:48:19.575Z,0
2023-11-15T10:49:20.529Z,0
2023-11-15T10:50:22.601Z,0
2023-11-15T10:51:26.176Z,0
2023-11-15T10:52:28.581Z,1
2023-11-15T10:53:33.326Z,1
2023-11-15T10:54:38.754Z,1
2023-11-15T10:55:47.129Z,1
2023-11-15T10:56:56.675Z,0
2023-11-15T10:58:03.838Z,0
2023-11-15T10:59:08.685Z,0
2023-11-15T11:00:14.503Z,0
2023-11-15T11:01:16.213Z,0
2023-11-15T11:02:18.398Z,0
2023-11-15T11:03:22.628Z,0
2023-11-15T11:04:25.725Z,0
2023-11-15T11:05:32.539Z,0
2023-11-15T11:06:36.816Z,0
2023-11-15T11:07:39.636Z,0
2023-11-15T11:08:41.570Z,0
2023-11-15T11:09:43.478Z,0
2023-11-15T11:10:47.980Z,0
2023-11-15T11:11:50.446Z,0
2023-11-15T11:12:52.211Z,0
2023-11-15T11:13:53.618Z,0
2023-11-15T11:14:55.132Z,0
2023-11-15T11:15:57.229Z,0
2023-11-15T11:16:59.450Z,0
2023-11-15T11:18:02.901Z,0
2023-11-15T11:19:07.030Z,0
2023-11-15T11:20:10.296Z,0
2023-11-15T11:21:15.602Z,0
2023-11-15T11:22:21.726Z,0
2023-11-15T11:23:24.228Z,0
2023-11-15T11:24:25.318Z,0
2023-11-15T11:25:29.724Z,0
2023-11-15T11:26:32.452Z,0
2023-11-15T11:27:34.110Z,0
2023-11-15T11:28:35.138Z,0
2023-11-15T11:29:36.286Z,0
2023-11-15T11:30:38.220Z,0
2023-11-15T11:31:39.216Z,0
2023-11-15T11:32:44.160Z,0
2023-11-15T11:33:47.555Z,0
2023-11-15T11:34:50.527Z,0
2023-11-15T11:35:52.465Z,0
2023-11-15T11:36:54.705Z,0
2023-11-15T11:37:58.689Z,0
2023-11-15T11:39:00.313Z,0
2023-11-15T11:40:02.162Z,0
2023-11-15T11:41:03.634Z,0
2023-11-15T11:42:05.219Z,1
2023-11-15T11:43:06.343Z,2
2023-11-15T11:44:07.281Z,2
2023-11-15T11:45:12.033Z,2
2023-11-15T11:46:13.470Z,2
2023-11-15T11:47:17.218Z,2
2023-11-15T11:48:21.801Z,2
2023-11-15T11:49:23.128Z,2
2023-11-15T11:50:31.135Z,2
2023-11-15T11:51:33.360Z,2
2023-11-15T11:52:35.201Z,2
2023-11-15T11:53:37.114Z,3
2023-11-15T11:54:38.174Z,3
2023-11-15T11:55:40.093Z,3
2023-11-15T11:56:41.431Z,3
2023-11-15T11:57:43.144Z,2
2023-11-15T11:58:44.318Z,3
2023-11-15T11:59:45.204Z,3
2023-11-15T12:00:53.135Z,3
2023-11-15T12:01:55.492Z,2
2023-11-15T12:03:03.041Z,2
2023-11-15T12:04:00.229Z,2
2023-11-15T12:05:01.179Z,2
2023-11-15T12:06:02.184Z,2
2023-11-15T12:07:03.318Z,2
2023-11-15T12:08:05.230Z,2
2023-11-15T12:09:07.328Z,2
2023-11-15T12:10:08.146Z,2
2023-11-15T12:11:12.153Z,1
2023-11-15T12:12:13.241Z,1
2023-11-15T12:13:14.167Z,1
2023-11-15T12:14:15.469Z,1
2023-11-15T12:15:18.341Z,2
2023-11-15T12:16:22.494Z,2
2023-11-15T12:17:28.028Z,2
2023-11-15T12:18:32.502Z,2
2023-11-15T12:19:37.314Z,2
2023-11-15T12:20:38.204Z,1
2023-11-15T12:21:42.464Z,1
2023-11-15T12:22:44.161Z,1
2023-11-15T12:23:45.417Z,1
2023-11-15T12:24:48.229Z,2
2023-11-15T12:25:50.135Z,2
2023-11-15T12:26:53.006Z,2
2023-11-15T12:27:55.348Z,2
2023-11-15T12:28:57.171Z,2
2023-11-15T12:29:59.413Z,2
2023-11-15T12:31:00.590Z,2
2023-11-15T12:32:03.275Z,3
2023-11-15T12:33:04.358Z,3
2023-11-15T12:34:06.179Z,4
2023-11-15T12:35:07.321Z,3
2023-11-15T12:36:08.170Z,3
2023-11-15T12:37:10.373Z,3
2023-11-15T12:38:12.386Z,3
2023-11-15T12:39:14.460Z,3
2023-11-15T12:40:17.521Z,2
2023-11-15T12:41:20.339Z,0
2023-11-15T12:42:21.336Z,0
2023-11-15T12:43:24.498Z,0
2023-11-15T12:44:26.264Z,0
2023-11-15T12:45:27.245Z,0
2023-11-15T12:46:29.348Z,0
2023-11-15T12:47:37.235Z,0
2023-11-15T12:48:42.073Z,0
2023-11-15T12:49:43.205Z,0
2023-11-15T12:50:44.591Z,0
2023-11-15T12:51:50.280Z,0
2023-11-15T12:52:53.145Z,0
2023-11-15T12:53:54.031Z,0
2023-11-15T12:54:58.171Z,0
2023-11-15T12:56:01.606Z,0
2023-11-15T12:57:05.235Z,0
2023-11-15T12:58:07.186Z,0
2023-11-15T12:59:09.372Z,0
2023-11-15T13:00:10.339Z,0
2023-11-15T13:01:11.238Z,0
2023-11-15T13:02:16.633Z,0
2023-11-15T13:03:19.580Z,1
2023-11-15T13:04:22.754Z,0
2023-11-15T13:05:27.168Z,0
2023-11-15T13:06:30.835Z,0
2023-11-15T13:07:31.209Z,0
2023-11-15T13:08:34.244Z,0
2023-11-15T13:09:43.089Z,0
2023-11-15T13:10:45.390Z,1
2023-11-15T13:11:48.254Z,1
2023-11-15T13:12:51.727Z,0
2023-11-15T13:14:01.015Z,0
2023-11-15T13:15:06.280Z,0
2023-11-15T13:16:11.087Z,0
2023-11-15T13:17:14.924Z,0
2023-11-15T13:18:17.364Z,0
2023-11-15T13:19:18.217Z,0
2023-11-15T13:20:19.380Z,0
2023-11-15T13:21:21.484Z,0
2023-11-15T13:22:23.442Z,0
2023-11-15T13:23:25.176Z,0
2023-11-15T13:24:27.883Z,0
2023-11-15T13:25:30.464Z,0
2023-11-15T13:26:31.233Z,0
2023-11-15T13:27:33.414Z,0
2023-11-15T13:28:35.423Z,0
2023-11-15T13:29:37.397Z,0
2023-11-15T13:30:38.702Z,0
2023-11-15T13:31:40.152Z,1
2023-11-15T13:32:44.401Z,1
2023-11-15T13:33:45.264Z,1
2023-11-15T13:34:49.929Z,1
2023-11-15T13:35:52.203Z,0
2023-11-15T13:36:55.342Z,0
2023-11-15T13:37:56.195Z,0
2023-11-15T13:38:58.377Z,0
2023-11-15T13:40:01.188Z,0
2023-11-15T13:41:03.302Z,0
2023-11-15T13:42:05.276Z,0
2023-11-15T13:43:07.293Z,0
2023-11-15T13:44:08.193Z,0
2023-11-15T13:45:09.575Z,0
2023-11-15T13:46:12.420Z,0
2023-11-15T13:47:14.439Z,0
2023-11-15T13:48:18.500Z,0
2023-11-15T13:49:19.947Z,0
2023-11-15T13:50:21.656Z,0
2023-11-15T13:51:23.889Z,0
2023-11-15T13:52:25.200Z,0
2023-11-15T13:53:26.197Z,0
2023-11-15T13:54:28.857Z,0
2023-11-15T13:55:30.224Z,0
2023-11-15T13:56:32.177Z,0
2023-11-15T13:57:33.255Z,0
2023-11-15T13:58:34.178Z,0
2023-11-15T13:59:35.202Z,0
2023-11-15T14:00:37.265Z,0
2023-11-15T14:01:38.250Z,0
2023-11-15T14:02:42.788Z,0
2023-11-15T14:03:50.375Z,0
2023-11-15T14:04:51.460Z,0
2023-11-15T14:05:55.266Z,0
2023-11-15T14:06:58.593Z,0
2023-11-15T14:08:05.073Z,0
2023-11-15T14:09:12.757Z,0
2023-11-15T14:10:14.243Z,0
2023-11-15T14:11:16.461Z,0
2023-11-15T14:12:18.382Z,0
2023-11-15T14:13:19.529Z,0
2023-11-15T14:14:22.380Z,0
2023-11-15T14:15:25.392Z,0
2023-11-15T14:16:28.810Z,0
2023-11-15T14:17:32.460Z,0
2023-11-15T14:18:36.079Z,0
2023-11-15T14:19:37.292Z,0
2023-11-15T14:20:39.193Z,0
2023-11-15T14:21:40.503Z,1
2023-11-15T14:22:41.456Z,0
2023-11-15T14:23:44.325Z,0
2023-11-15T14:24:46.577Z,0
2023-11-15T14:25:50.004Z,0
2023-11-15T14:26:51.298Z,0
2023-11-15T14:27:57.909Z,0
2023-11-15T14:28:58.266Z,0
2023-11-15T14:30:03.153Z,0
2023-11-15T14:31:07.268Z,1
2023-11-15T14:32:08.479Z,0
2023-11-15T14:33:11.219Z,0
2023-11-15T14:34:12.242Z,0
2023-11-15T14:35:14.240Z,0
2023-11-15T14:36:16.813Z,0
2023-11-15T14:37:21.154Z,0
2023-11-15T14:38:25.258Z,0
2023-11-15T14:39:27.332Z,0
2023-11-15T14:40:32.073Z,0
2023-11-15T14:41:33.228Z,0
2023-11-15T14:42:38.358Z,0
2023-11-15T14:43:39.810Z,0
2023-11-15T14:44:42.388Z,0
2023-11-15T14:45:53.411Z,0
2023-11-15T14:46:58.956Z,0
2023-11-15T14:48:01.493Z,0
2023-11-15T14:49:08.069Z,0
2023-11-15T14:50:09.997Z,0
2023-11-15T14:51:14.203Z,0
2023-11-15T14:52:34.252Z,0
2023-11-15T14:53:34.257Z,0
2023-11-15T14:54:35.344Z,1
2023-11-15T14:55:36.447Z,0
2023-11-15T14:56:38.274Z,0
2023-11-15T14:57:40.229Z,0
2023-11-15T14:58:44.476Z,0
2023-11-15T14:59:45.374Z,0
2023-11-15T15:00:46.545Z,1
2023-11-15T15:01:53.580Z,0
2023-11-15T15:02:57.501Z,1
2023-11-15T15:04:00.683Z,0
2023-11-15T15:05:06.195Z,1
2023-11-15T15:06:08.314Z,1
2023-11-15T15:07:11.261Z,0
2023-11-15T15:08:12.441Z,1
2023-11-15T15:09:13.901Z,1
2023-11-15T15:10:18.230Z,1
2023-11-15T15:11:19.203Z,1
2023-11-15T15:12:21.539Z,1
2023-11-15T15:13:24.359Z,1
2023-11-15T15:14:25.320Z,0
2023-11-15T15:15:30.157Z,0
2023-11-15T15:16:39.147Z,0
2023-11-15T15:17:45.187Z,0
2023-11-15T15:18:53.255Z,0
2023-11-15T15:19:54.222Z,0
2023-11-15T15:20:56.264Z,0
2023-11-15T15:21:57.955Z,1